Terminal Aerodrome Forecast
Issued by NWS

Home | Current Version | Previous Version | Text Only | Print | Product List | Glossary On
Versions: 1 2 3 4 5 6 7 8 9 10 11 12 13 14 15 16 17 18 19 20
256
FTUS44 KBMX 221131
TAFMGM
TAF
KMGM 221131Z 2212/2312 09012KT P6SM -RA SCT007 BKN012 OVC040
      WS015/13041KT
      TEMPO 2212/2214 1 1/2SM RA BKN006 OVC012
     FM221400 11010G17KT 5SM -RA SCT008 OVC012
     FM221900 14010G18KT 6SM -RA SCT012 BKN020 OVC040
     FM230000 16008KT P6SM VCSH SCT025 OVC050
     FM230600 17008KT P6SM OVC007=

USA.gov is the U.S. government's official web portal to all federal, state and local government web resources and services.